sensor_id;sensor_type;location;lat;lon;timestamp;noise_LAeq;noise_LA_min;noise_LA_max;noise_LA01;noise_LA95
4048;Laerm;2038;51.728;6.674;2024-01-25T00:00:25;35.84;26.91;39.46;;
4048;Laerm;2038;51.728;6.674;2024-01-25T00:02:52;35.82;5.00;39.46;;
4048;Laerm;2038;51.728;6.674;2024-01-25T00:05:18;35.86;23.90;39.08;;
4048;Laerm;2038;51.728;6.674;2024-01-25T00:07:48;35.82;28.67;39.34;;
4048;Laerm;2038;51.728;6.674;2024-01-25T00:10:17;35.84;28.67;39.46;;
4048;Laerm;2038;51.728;6.674;2024-01-25T00:12:44;35.84;26.91;39.58;;
4048;Laerm;2038;51.728;6.674;2024-01-25T00:15:10;35.79;23.90;38.95;;
4048;Laerm;2038;51.728;6.674;2024-01-25T00:17:37;35.87;23.90;39.34;;
4048;Laerm;2038;51.728;6.674;2024-01-25T00:20:05;35.82;26.91;39.34;;
4048;Laerm;2038;51.728;6.674;2024-01-25T00:22:31;35.84;26.91;38.95;;
4048;Laerm;2038;51.728;6.674;2024-01-25T00:24:58;35.82;23.90;39.70;;
4048;Laerm;2038;51.728;6.674;2024-01-25T00:27:25;35.83;26.91;39.08;;
4048;Laerm;2038;51.728;6.674;2024-01-25T00:29:52;35.81;26.91;39.08;;
4048;Laerm;2038;51.728;6.674;2024-01-25T00:32:18;35.82;26.91;39.08;;
4048;Laerm;2038;51.728;6.674;2024-01-25T00:34:44;35.80;23.90;39.21;;
4048;Laerm;2038;51.728;6.674;2024-01-25T00:37:11;35.83;26.91;39.08;;
4048;Laerm;2038;51.728;6.674;2024-01-25T00:39:38;35.78;23.90;39.68;;
4048;Laerm;2038;51.728;6.674;2024-01-25T00:42:06;35.78;23.90;39.34;;
4048;Laerm;2038;51.728;6.674;2024-01-25T00:44:33;35.75;23.90;39.21;;
4048;Laerm;2038;51.728;6.674;2024-01-25T00:47:00;35.77;5.00;39.34;;
4048;Laerm;2038;51.728;6.674;2024-01-25T00:49:26;35.77;26.91;39.46;;
4048;Laerm;2038;51.728;6.674;2024-01-25T00:51:59;35.76;26.91;39.70;;
4048;Laerm;2038;51.728;6.674;2024-01-25T00:54:29;35.74;5.00;39.21;;
4048;Laerm;2038;51.728;6.674;2024-01-25T00:56:55;35.77;23.90;39.34;;
4048;Laerm;2038;51.728;6.674;2024-01-25T00:59:22;35.78;23.90;39.58;;
4048;Laerm;2038;51.728;6.674;2024-01-25T01:01:52;35.74;26.91;39.21;;
4048;Laerm;2038;51.728;6.674;2024-01-25T01:04:20;35.79;5.00;39.58;;
4048;Laerm;2038;51.728;6.674;2024-01-25T01:06:46;35.78;26.91;39.21;;
4048;Laerm;2038;51.728;6.674;2024-01-25T01:09:14;35.76;26.91;39.08;;
4048;Laerm;2038;51.728;6.674;2024-01-25T01:11:40;35.78;23.90;39.34;;
4048;Laerm;2038;51.728;6.674;2024-01-25T01:14:06;35.74;23.90;39.81;;
4048;Laerm;2038;51.728;6.674;2024-01-25T01:16:32;35.76;26.91;39.08;;
4048;Laerm;2038;51.728;6.674;2024-01-25T01:18:59;35.71;5.00;39.46;;
4048;Laerm;2038;51.728;6.674;2024-01-25T01:21:33;35.74;23.90;39.46;;
4048;Laerm;2038;51.728;6.674;2024-01-25T01:23:59;35.78;23.90;39.46;;
4048;Laerm;2038;51.728;6.674;2024-01-25T01:26:25;35.73;26.91;39.08;;
4048;Laerm;2038;51.728;6.674;2024-01-25T01:28:51;35.79;23.90;39.46;;
4048;Laerm;2038;51.728;6.674;2024-01-25T01:31:18;35.72;23.90;39.21;;
4048;Laerm;2038;51.728;6.674;2024-01-25T01:33:44;35.74;26.91;39.08;;
4048;Laerm;2038;51.728;6.674;2024-01-25T01:36:10;35.73;26.91;38.87;;
4048;Laerm;2038;51.728;6.674;2024-01-25T01:38:36;35.71;5.00;39.21;;
4048;Laerm;2038;51.728;6.674;2024-01-25T01:41:03;35.75;26.91;39.08;;
4048;Laerm;2038;51.728;6.674;2024-01-25T01:43:29;35.73;23.90;39.34;;
4048;Laerm;2038;51.728;6.674;2024-01-25T01:46:04;35.74;26.91;39.34;;
4048;Laerm;2038;51.728;6.674;2024-01-25T01:48:34;35.73;23.90;38.95;;
4048;Laerm;2038;51.728;6.674;2024-01-25T01:51:00;35.71;26.91;39.34;;
4048;Laerm;2038;51.728;6.674;2024-01-25T01:53:27;35.71;26.91;39.70;;
4048;Laerm;2038;51.728;6.674;2024-01-25T01:55:53;35.68;23.90;39.21;;
4048;Laerm;2038;51.728;6.674;2024-01-25T01:58:22;35.71;23.90;39.34;;
4048;Laerm;2038;51.728;6.674;2024-01-25T02:00:50;35.70;23.90;39.81;;
4048;Laerm;2038;51.728;6.674;2024-01-25T02:03:16;35.70;26.91;39.35;;
4048;Laerm;2038;51.728;6.674;2024-01-25T02:05:43;35.69;23.90;39.08;;
4048;Laerm;2038;51.728;6.674;2024-01-25T02:08:09;35.68;26.91;38.81;;
4048;Laerm;2038;51.728;6.674;2024-01-25T02:10:36;35.68;23.90;38.95;;
4048;Laerm;2038;51.728;6.674;2024-01-25T02:13:02;35.72;5.00;39.46;;
4048;Laerm;2038;51.728;6.674;2024-01-25T02:15:28;35.68;23.90;39.92;;
4048;Laerm;2038;51.728;6.674;2024-01-25T02:17:55;35.72;23.55;39.21;;
4048;Laerm;2038;51.728;6.674;2024-01-25T02:20:22;35.67;23.90;39.21;;
4048;Laerm;2038;51.728;6.674;2024-01-25T02:22:48;35.70;26.91;39.08;;
4048;Laerm;2038;51.728;6.674;2024-01-25T02:25:14;35.68;26.91;39.21;;
4048;Laerm;2038;51.728;6.674;2024-01-25T02:27:40;35.63;23.90;39.08;;
4048;Laerm;2038;51.728;6.674;2024-01-25T02:30:07;35.69;23.90;38.95;;
4048;Laerm;2038;51.728;6.674;2024-01-25T02:32:34;35.67;26.91;39.58;;
4048;Laerm;2038;51.728;6.674;2024-01-25T02:35:01;35.69;23.90;39.34;;
4048;Laerm;2038;51.728;6.674;2024-01-25T02:37:27;35.67;23.90;39.34;;
4048;Laerm;2038;51.728;6.674;2024-01-25T02:39:53;35.66;23.90;39.21;;
4048;Laerm;2038;51.728;6.674;2024-01-25T02:42:20;35.65;23.55;39.58;;
4048;Laerm;2038;51.728;6.674;2024-01-25T02:44:46;35.66;26.91;38.95;;
4048;Laerm;2038;51.728;6.674;2024-01-25T02:47:12;35.67;23.90;39.08;;
4048;Laerm;2038;51.728;6.674;2024-01-25T02:49:41;35.71;23.90;39.34;;
4048;Laerm;2038;51.728;6.674;2024-01-25T02:52:07;35.70;23.90;39.08;;
4048;Laerm;2038;51.728;6.674;2024-01-25T02:54:35;35.68;26.56;39.21;;
4048;Laerm;2038;51.728;6.674;2024-01-25T02:57:03;35.72;23.90;39.34;;
4048;Laerm;2038;51.728;6.674;2024-01-25T02:59:30;35.66;5.00;39.46;;
4048;Laerm;2038;51.728;6.674;2024-01-25T03:01:57;35.65;23.90;39.46;;
4048;Laerm;2038;51.728;6.674;2024-01-25T03:04:23;35.70;5.00;39.21;;
4048;Laerm;2038;51.728;6.674;2024-01-25T03:06:49;35.68;23.90;39.58;;
4048;Laerm;2038;51.728;6.674;2024-01-25T03:09:16;35.69;23.90;39.08;;
4048;Laerm;2038;51.728;6.674;2024-01-25T03:11:42;35.67;26.56;38.95;;
4048;Laerm;2038;51.728;6.674;2024-01-25T03:14:08;35.65;23.90;39.08;;
4048;Laerm;2038;51.728;6.674;2024-01-25T03:16:34;35.68;5.00;38.95;;
4048;Laerm;2038;51.728;6.674;2024-01-25T03:19:00;35.67;5.00;39.34;;
4048;Laerm;2038;51.728;6.674;2024-01-25T03:21:27;35.64;5.00;39.08;;
4048;Laerm;2038;51.728;6.674;2024-01-25T03:23:53;35.69;23.90;39.70;;
4048;Laerm;2038;51.728;6.674;2024-01-25T03:26:19;35.66;26.91;39.46;;
4048;Laerm;2038;51.728;6.674;2024-01-25T03:28:45;35.69;26.56;38.95;;
4048;Laerm;2038;51.728;6.674;2024-01-25T03:31:11;35.68;23.90;39.46;;
4048;Laerm;2038;51.728;6.674;2024-01-25T03:33:38;35.66;23.90;38.95;;
4048;Laerm;2038;51.728;6.674;2024-01-25T03:36:05;35.68;26.56;39.08;;
4048;Laerm;2038;51.728;6.674;2024-01-25T03:38:32;35.68;23.90;39.46;;
4048;Laerm;2038;51.728;6.674;2024-01-25T03:40:59;35.65;23.90;39.34;;
4048;Laerm;2038;51.728;6.674;2024-01-25T03:43:28;35.62;23.90;39.46;;
4048;Laerm;2038;51.728;6.674;2024-01-25T03:45:54;35.63;23.55;38.95;;
4048;Laerm;2038;51.728;6.674;2024-01-25T03:48:20;35.62;23.90;38.81;;
4048;Laerm;2038;51.728;6.674;2024-01-25T03:50:47;35.63;5.00;39.46;;
4048;Laerm;2038;51.728;6.674;2024-01-25T03:53:14;35.66;23.90;38.99;;
4048;Laerm;2038;51.728;6.674;2024-01-25T03:55:41;35.60;23.90;39.46;;
4048;Laerm;2038;51.728;6.674;2024-01-25T03:58:07;35.61;26.91;38.81;;
4048;Laerm;2038;51.728;6.674;2024-01-25T04:00:34;35.64;5.00;38.95;;
4048;Laerm;2038;51.728;6.674;2024-01-25T04:03:01;35.58;23.90;39.08;;
4048;Laerm;2038;51.728;6.674;2024-01-25T04:05:27;35.63;23.90;39.08;;
4048;Laerm;2038;51.728;6.674;2024-01-25T04:07:53;35.62;26.56;38.95;;
4048;Laerm;2038;51.728;6.674;2024-01-25T04:10:19;35.64;23.90;38.95;;
4048;Laerm;2038;51.728;6.674;2024-01-25T04:12:45;35.64;23.90;39.21;;
4048;Laerm;2038;51.728;6.674;2024-01-25T04:15:12;35.65;23.90;39.21;;
4048;Laerm;2038;51.728;6.674;2024-01-25T04:17:38;35.65;26.91;39.21;;
4048;Laerm;2038;51.728;6.674;2024-01-25T04:20:04;35.66;23.90;39.08;;
4048;Laerm;2038;51.728;6.674;2024-01-25T04:22:31;35.65;5.00;39.21;;
4048;Laerm;2038;51.728;6.674;2024-01-25T04:24:57;35.67;23.90;39.08;;
4048;Laerm;2038;51.728;6.674;2024-01-25T04:27:23;35.64;23.90;39.08;;
4048;Laerm;2038;51.728;6.674;2024-01-25T04:29:49;35.62;23.90;39.34;;
4048;Laerm;2038;51.728;6.674;2024-01-25T04:32:16;35.65;23.90;38.81;;
4048;Laerm;2038;51.728;6.674;2024-01-25T04:34:44;35.66;26.91;39.70;;
4048;Laerm;2038;51.728;6.674;2024-01-25T04:37:12;35.58;23.90;39.08;;
4048;Laerm;2038;51.728;6.674;2024-01-25T04:39:38;35.64;26.91;39.21;;
4048;Laerm;2038;51.728;6.674;2024-01-25T04:42:04;35.66;23.90;39.08;;
4048;Laerm;2038;51.728;6.674;2024-01-25T04:44:31;35.66;5.00;39.21;;
4048;Laerm;2038;51.728;6.674;2024-01-25T04:46:57;35.63;5.00;39.34;;
4048;Laerm;2038;51.728;6.674;2024-01-25T04:49:23;35.62;26.91;38.95;;
4048;Laerm;2038;51.728;6.674;2024-01-25T04:51:50;35.68;28.32;38.95;;
4048;Laerm;2038;51.728;6.674;2024-01-25T04:54:17;35.65;23.90;38.95;;
4048;Laerm;2038;51.728;6.674;2024-01-25T04:56:44;35.63;26.91;39.21;;
4048;Laerm;2038;51.728;6.674;2024-01-25T04:59:10;35.64;23.90;38.95;;
4048;Laerm;2038;51.728;6.674;2024-01-25T05:01:36;35.67;5.00;39.34;;
4048;Laerm;2038;51.728;6.674;2024-01-25T05:04:03;35.66;23.90;39.21;;
4048;Laerm;2038;51.728;6.674;2024-01-25T05:06:29;35.66;23.90;39.08;;
4048;Laerm;2038;51.728;6.674;2024-01-25T05:08:55;35.68;5.00;39.08;;
4048;Laerm;2038;51.728;6.674;2024-01-25T05:11:22;35.64;26.91;39.08;;
4048;Laerm;2038;51.728;6.674;2024-01-25T05:13:48;35.68;26.56;39.21;;
4048;Laerm;2038;51.728;6.674;2024-01-25T05:16:14;35.66;26.91;39.08;;
4048;Laerm;2038;51.728;6.674;2024-01-25T05:18:41;35.68;23.90;39.08;;
4048;Laerm;2038;51.728;6.674;2024-01-25T05:21:07;35.63;23.90;39.08;;
4048;Laerm;2038;51.728;6.674;2024-01-25T05:23:33;35.67;5.00;39.70;;
4048;Laerm;2038;51.728;6.674;2024-01-25T05:26:01;35.64;23.90;39.08;;
4048;Laerm;2038;51.728;6.674;2024-01-25T05:28:27;35.65;23.90;39.08;;
4048;Laerm;2038;51.728;6.674;2024-01-25T05:30:53;35.60;23.90;38.95;;
4048;Laerm;2038;51.728;6.674;2024-01-25T05:33:20;35.62;26.91;39.08;;
4048;Laerm;2038;51.728;6.674;2024-01-25T05:35:46;35.59;23.90;39.08;;
4048;Laerm;2038;51.728;6.674;2024-01-25T05:38:12;35.62;26.91;39.58;;
4048;Laerm;2038;51.728;6.674;2024-01-25T05:40:38;35.56;23.55;39.21;;
4048;Laerm;2038;51.728;6.674;2024-01-25T05:43:05;35.60;23.90;39.08;;
4048;Laerm;2038;51.728;6.674;2024-01-25T05:45:31;35.60;26.91;38.81;;
4048;Laerm;2038;51.728;6.674;2024-01-25T05:47:57;35.59;23.90;39.08;;
4048;Laerm;2038;51.728;6.674;2024-01-25T05:50:24;35.59;23.90;39.08;;
4048;Laerm;2038;51.728;6.674;2024-01-25T05:52:50;35.55;5.00;39.08;;
4048;Laerm;2038;51.728;6.674;2024-01-25T05:55:16;35.58;23.90;39.21;;
4048;Laerm;2038;51.728;6.674;2024-01-25T05:57:43;35.55;5.00;38.95;;
4048;Laerm;2038;51.728;6.674;2024-01-25T06:00:13;35.54;5.00;38.95;;
4048;Laerm;2038;51.728;6.674;2024-01-25T06:02:41;35.56;23.90;39.58;;
4048;Laerm;2038;51.728;6.674;2024-01-25T06:05:07;35.62;23.90;39.08;;
4048;Laerm;2038;51.728;6.674;2024-01-25T06:07:33;35.63;26.91;38.99;;
4048;Laerm;2038;51.728;6.674;2024-01-25T06:10:00;35.61;26.91;39.21;;
4048;Laerm;2038;51.728;6.674;2024-01-25T06:12:26;35.64;23.90;39.21;;
4048;Laerm;2038;51.728;6.674;2024-01-25T06:14:52;35.62;26.91;39.08;;
4048;Laerm;2038;51.728;6.674;2024-01-25T06:17:18;35.64;26.91;39.34;;
4048;Laerm;2038;51.728;6.674;2024-01-25T06:19:45;35.61;5.00;39.70;;
4048;Laerm;2038;51.728;6.674;2024-01-25T06:22:11;35.61;26.91;39.08;;
4048;Laerm;2038;51.728;6.674;2024-01-25T06:24:38;35.63;23.90;39.21;;
4048;Laerm;2038;51.728;6.674;2024-01-25T06:27:05;35.61;23.90;39.11;;
4048;Laerm;2038;51.728;6.674;2024-01-25T06:29:31;35.63;26.91;39.46;;
4048;Laerm;2038;51.728;6.674;2024-01-25T06:31:57;35.64;23.90;39.70;;
4048;Laerm;2038;51.728;6.674;2024-01-25T06:34:23;35.64;23.90;39.08;;
4048;Laerm;2038;51.728;6.674;2024-01-25T06:36:49;35.63;23.55;39.21;;
4048;Laerm;2038;51.728;6.674;2024-01-25T06:39:16;35.66;26.91;39.08;;
4048;Laerm;2038;51.728;6.674;2024-01-25T06:41:42;35.68;26.91;39.08;;
4048;Laerm;2038;51.728;6.674;2024-01-25T06:44:08;35.67;26.91;39.08;;
4048;Laerm;2038;51.728;6.674;2024-01-25T06:46:34;35.64;23.90;39.46;;
4048;Laerm;2038;51.728;6.674;2024-01-25T06:49:01;35.65;26.91;38.95;;
4048;Laerm;2038;51.728;6.674;2024-01-25T06:51:27;35.69;5.00;39.08;;
4048;Laerm;2038;51.728;6.674;2024-01-25T06:53:53;35.63;5.00;39.34;;
4048;Laerm;2038;51.728;6.674;2024-01-25T06:56:20;35.61;5.00;39.34;;
4048;Laerm;2038;51.728;6.674;2024-01-25T06:58:46;35.60;23.90;38.81;;
4048;Laerm;2038;51.728;6.674;2024-01-25T07:01:12;35.61;23.90;38.95;;
4048;Laerm;2038;51.728;6.674;2024-01-25T07:03:39;35.66;23.90;39.08;;
4048;Laerm;2038;51.728;6.674;2024-01-25T07:06:05;35.61;23.90;39.21;;
4048;Laerm;2038;51.728;6.674;2024-01-25T07:08:32;35.60;5.00;39.21;;
4048;Laerm;2038;51.728;6.674;2024-01-25T07:10:58;35.61;26.91;39.46;;
4048;Laerm;2038;51.728;6.674;2024-01-25T07:13:27;35.65;23.90;39.21;;
4048;Laerm;2038;51.728;6.674;2024-01-25T07:15:53;35.62;23.90;38.95;;
4048;Laerm;2038;51.728;6.674;2024-01-25T07:18:19;35.67;26.91;38.95;;
4048;Laerm;2038;51.728;6.674;2024-01-25T07:20:45;35.67;5.00;39.46;;
4048;Laerm;2038;51.728;6.674;2024-01-25T07:23:12;35.66;23.90;39.08;;
4048;Laerm;2038;51.728;6.674;2024-01-25T07:25:38;35.66;26.91;39.34;;
4048;Laerm;2038;51.728;6.674;2024-01-25T07:28:04;35.66;26.91;39.08;;
4048;Laerm;2038;51.728;6.674;2024-01-25T07:30:30;35.64;23.90;39.21;;
4048;Laerm;2038;51.728;6.674;2024-01-25T07:32:57;35.65;23.90;39.08;;
4048;Laerm;2038;51.728;6.674;2024-01-25T07:35:23;35.66;23.90;39.21;;
4048;Laerm;2038;51.728;6.674;2024-01-25T07:37:49;35.69;23.90;39.46;;
4048;Laerm;2038;51.728;6.674;2024-01-25T07:40:15;35.63;23.90;39.46;;
4048;Laerm;2038;51.728;6.674;2024-01-25T07:42:42;35.65;26.56;39.21;;
4048;Laerm;2038;51.728;6.674;2024-01-25T07:45:09;35.68;23.90;39.34;;
4048;Laerm;2038;51.728;6.674;2024-01-25T07:47:35;35.67;26.91;39.08;;
4048;Laerm;2038;51.728;6.674;2024-01-25T07:50:02;35.71;23.90;39.21;;
4048;Laerm;2038;51.728;6.674;2024-01-25T07:52:29;35.69;23.90;39.34;;
4048;Laerm;2038;51.728;6.674;2024-01-25T07:54:55;35.69;23.90;39.34;;
4048;Laerm;2038;51.728;6.674;2024-01-25T07:57:21;35.70;23.90;39.34;;
4048;Laerm;2038;51.728;6.674;2024-01-25T07:59:48;35.69;23.55;39.21;;
4048;Laerm;2038;51.728;6.674;2024-01-25T08:02:14;35.66;26.91;38.95;;
4048;Laerm;2038;51.728;6.674;2024-01-25T08:04:40;35.69;23.90;39.58;;
4048;Laerm;2038;51.728;6.674;2024-01-25T08:07:06;35.66;26.91;39.08;;
4048;Laerm;2038;51.728;6.674;2024-01-25T08:09:32;35.70;23.90;39.34;;
4048;Laerm;2038;51.728;6.674;2024-01-25T08:11:59;35.67;23.90;39.34;;
4048;Laerm;2038;51.728;6.674;2024-01-25T08:14:26;35.66;26.91;38.95;;
4048;Laerm;2038;51.728;6.674;2024-01-25T08:16:52;35.69;23.90;39.34;;
4048;Laerm;2038;51.728;6.674;2024-01-25T08:19:18;35.71;5.00;39.08;;
4048;Laerm;2038;51.728;6.674;2024-01-25T08:21:45;35.66;23.90;39.08;;
4048;Laerm;2038;51.728;6.674;2024-01-25T08:24:11;35.68;26.91;38.95;;
4048;Laerm;2038;51.728;6.674;2024-01-25T08:26:37;35.71;23.90;39.08;;
4048;Laerm;2038;51.728;6.674;2024-01-25T08:29:04;35.68;5.00;39.21;;
4048;Laerm;2038;51.728;6.674;2024-01-25T08:31:30;35.68;5.00;39.58;;
4048;Laerm;2038;51.728;6.674;2024-01-25T08:33:56;35.72;23.90;39.58;;
4048;Laerm;2038;51.728;6.674;2024-01-25T08:36:22;35.69;26.91;39.34;;
4048;Laerm;2038;51.728;6.674;2024-01-25T08:38:49;35.72;26.91;38.95;;
4048;Laerm;2038;51.728;6.674;2024-01-25T08:41:15;35.70;23.90;39.08;;
4048;Laerm;2038;51.728;6.674;2024-01-25T08:43:42;35.71;5.00;39.81;;
4048;Laerm;2038;51.728;6.674;2024-01-25T08:46:09;35.74;23.90;39.21;;
4048;Laerm;2038;51.728;6.674;2024-01-25T08:48:35;35.72;23.90;39.21;;
4048;Laerm;2038;51.728;6.674;2024-01-25T08:51:01;35.73;23.90;39.46;;
4048;Laerm;2038;51.728;6.674;2024-01-25T08:53:28;35.74;23.90;39.34;;
4048;Laerm;2038;51.728;6.674;2024-01-25T08:55:55;35.73;5.00;39.70;;
4048;Laerm;2038;51.728;6.674;2024-01-25T08:58:22;35.74;23.90;39.34;;
4048;Laerm;2038;51.728;6.674;2024-01-25T09:00:48;35.72;26.91;39.34;;
4048;Laerm;2038;51.728;6.674;2024-01-25T09:03:17;35.72;23.90;39.34;;
4048;Laerm;2038;51.728;6.674;2024-01-25T09:05:44;35.75;26.56;39.08;;
4048;Laerm;2038;51.728;6.674;2024-01-25T09:08:14;35.77;23.90;39.34;;
4048;Laerm;2038;51.728;6.674;2024-01-25T09:10:43;35.79;26.91;39.21;;
4048;Laerm;2038;51.728;6.674;2024-01-25T09:13:10;35.77;28.67;39.81;;
4048;Laerm;2038;51.728;6.674;2024-01-25T09:15:36;35.79;26.91;39.34;;
4048;Laerm;2038;51.728;6.674;2024-01-25T09:18:03;35.71;23.90;39.58;;
4048;Laerm;2038;51.728;6.674;2024-01-25T09:20:29;35.77;26.91;39.34;;
4048;Laerm;2038;51.728;6.674;2024-01-25T09:22:56;35.80;23.90;39.08;;
4048;Laerm;2038;51.728;6.674;2024-01-25T09:25:22;35.79;23.90;39.21;;
4048;Laerm;2038;51.728;6.674;2024-01-25T09:27:49;35.79;23.90;39.70;;
4048;Laerm;2038;51.728;6.674;2024-01-25T09:30:15;35.81;23.90;39.70;;
4048;Laerm;2038;51.728;6.674;2024-01-25T09:32:42;35.80;26.91;39.70;;
4048;Laerm;2038;51.728;6.674;2024-01-25T09:35:08;35.81;5.00;39.70;;
4048;Laerm;2038;51.728;6.674;2024-01-25T09:37:34;35.76;23.90;38.81;;
4048;Laerm;2038;51.728;6.674;2024-01-25T09:40:00;35.83;23.90;39.21;;
4048;Laerm;2038;51.728;6.674;2024-01-25T09:42:27;35.81;26.91;39.34;;
4048;Laerm;2038;51.728;6.674;2024-01-25T09:44:54;35.83;26.91;39.11;;
4048;Laerm;2038;51.728;6.674;2024-01-25T09:47:21;35.83;23.55;39.21;;
4048;Laerm;2038;51.728;6.674;2024-01-25T09:49:48;35.85;23.90;38.99;;
4048;Laerm;2038;51.728;6.674;2024-01-25T09:52:16;35.82;26.91;39.46;;
4048;Laerm;2038;51.728;6.674;2024-01-25T09:54:42;35.83;26.91;39.34;;
4048;Laerm;2038;51.728;6.674;2024-01-25T09:57:24;35.87;23.90;39.21;;
4048;Laerm;2038;51.728;6.674;2024-01-25T09:59:50;35.85;23.90;39.70;;
4048;Laerm;2038;51.728;6.674;2024-01-25T10:02:16;35.86;26.91;39.34;;
4048;Laerm;2038;51.728;6.674;2024-01-25T10:04:48;35.85;23.90;39.46;;
4048;Laerm;2038;51.728;6.674;2024-01-25T10:07:15;35.84;26.91;39.58;;
4048;Laerm;2038;51.728;6.674;2024-01-25T10:09:42;35.82;26.91;39.70;;
4048;Laerm;2038;51.728;6.674;2024-01-25T10:12:08;35.86;26.91;39.46;;
4048;Laerm;2038;51.728;6.674;2024-01-25T10:14:34;35.85;23.90;39.34;;
4048;Laerm;2038;51.728;6.674;2024-01-25T10:17:01;35.88;26.91;39.34;;
4048;Laerm;2038;51.728;6.674;2024-01-25T10:19:28;35.85;26.56;39.70;;
4048;Laerm;2038;51.728;6.674;2024-01-25T10:21:56;35.83;26.91;39.58;;
4048;Laerm;2038;51.728;6.674;2024-01-25T10:24:22;35.85;5.00;39.34;;
4048;Laerm;2038;51.728;6.674;2024-01-25T10:26:50;35.86;26.91;39.46;;
4048;Laerm;2038;51.728;6.674;2024-01-25T10:29:16;35.82;26.91;39.08;;
4048;Laerm;2038;51.728;6.674;2024-01-25T10:31:43;35.85;26.91;39.46;;
4048;Laerm;2038;51.728;6.674;2024-01-25T10:34:13;35.88;23.90;39.58;;
4048;Laerm;2038;51.728;6.674;2024-01-25T10:36:40;35.86;28.32;39.70;;
4048;Laerm;2038;51.728;6.674;2024-01-25T10:39:08;35.88;26.91;39.81;;
4048;Laerm;2038;51.728;6.674;2024-01-25T10:41:35;35.89;23.90;39.21;;
4048;Laerm;2038;51.728;6.674;2024-01-25T10:44:01;35.90;28.67;39.81;;
4048;Laerm;2038;51.728;6.674;2024-01-25T10:46:29;35.90;26.56;39.34;;
4048;Laerm;2038;51.728;6.674;2024-01-25T10:48:58;35.94;23.90;39.34;;
4048;Laerm;2038;51.728;6.674;2024-01-25T10:51:30;35.89;23.90;39.34;;
4048;Laerm;2038;51.728;6.674;2024-01-25T10:53:56;35.91;28.67;39.21;;
4048;Laerm;2038;51.728;6.674;2024-01-25T10:56:25;35.88;23.90;39.46;;
4048;Laerm;2038;51.728;6.674;2024-01-25T10:58:51;35.90;23.90;39.34;;
4048;Laerm;2038;51.728;6.674;2024-01-25T11:01:17;35.87;5.00;39.21;;
4048;Laerm;2038;51.728;6.674;2024-01-25T11:03:46;35.88;23.90;39.08;;
4048;Laerm;2038;51.728;6.674;2024-01-25T11:06:13;35.90;23.90;39.34;;
4048;Laerm;2038;51.728;6.674;2024-01-25T11:08:40;35.83;23.90;39.46;;
4048;Laerm;2038;51.728;6.674;2024-01-25T11:11:10;35.87;23.90;39.46;;
4048;Laerm;2038;51.728;6.674;2024-01-25T11:13:40;35.90;26.91;39.34;;
4048;Laerm;2038;51.728;6.674;2024-01-25T11:16:17;35.87;26.91;39.21;;
4048;Laerm;2038;51.728;6.674;2024-01-25T11:18:54;35.82;23.90;39.70;;
4048;Laerm;2038;51.728;6.674;2024-01-25T11:21:38;35.91;26.91;39.34;;
4048;Laerm;2038;51.728;6.674;2024-01-25T11:24:05;35.84;5.00;39.21;;
4048;Laerm;2038;51.728;6.674;2024-01-25T11:26:34;35.90;23.90;39.46;;
4048;Laerm;2038;51.728;6.674;2024-01-25T11:29:01;35.93;5.00;39.34;;
4048;Laerm;2038;51.728;6.674;2024-01-25T11:31:28;35.89;26.91;39.21;;
4048;Laerm;2038;51.728;6.674;2024-01-25T11:34:01;35.88;26.91;39.34;;
4048;Laerm;2038;51.728;6.674;2024-01-25T11:36:28;35.89;26.91;39.34;;
4048;Laerm;2038;51.728;6.674;2024-01-25T11:38:55;35.90;28.67;39.21;;
4048;Laerm;2038;51.728;6.674;2024-01-25T11:41:21;35.93;26.56;39.57;;
4048;Laerm;2038;51.728;6.674;2024-01-25T11:43:51;35.89;23.90;39.58;;
4048;Laerm;2038;51.728;6.674;2024-01-25T11:46:18;35.86;23.90;39.21;;
4048;Laerm;2038;51.728;6.674;2024-01-25T11:48:45;35.84;23.90;39.21;;
4048;Laerm;2038;51.728;6.674;2024-01-25T11:51:12;35.86;5.00;39.21;;
4048;Laerm;2038;51.728;6.674;2024-01-25T11:53:38;35.88;23.90;39.21;;
4048;Laerm;2038;51.728;6.674;2024-01-25T11:56:09;35.86;23.90;39.21;;
4048;Laerm;2038;51.728;6.674;2024-01-25T11:58:39;35.82;26.91;39.46;;
4048;Laerm;2038;51.728;6.674;2024-01-25T12:01:06;35.84;23.90;39.46;;
4048;Laerm;2038;51.728;6.674;2024-01-25T12:03:35;35.82;28.67;39.08;;
4048;Laerm;2038;51.728;6.674;2024-01-25T12:06:05;35.87;26.91;39.34;;
4048;Laerm;2038;51.728;6.674;2024-01-25T12:08:35;35.83;26.91;39.70;;
4048;Laerm;2038;51.728;6.674;2024-01-25T12:11:06;35.89;23.55;39.21;;
4048;Laerm;2038;51.728;6.674;2024-01-25T12:13:43;35.88;23.90;39.34;;
4048;Laerm;2038;51.728;6.674;2024-01-25T12:16:10;35.87;5.00;39.58;;
4048;Laerm;2038;51.728;6.674;2024-01-25T12:18:39;35.89;26.91;39.35;;
4048;Laerm;2038;51.728;6.674;2024-01-25T12:21:06;35.92;5.00;39.92;;
4048;Laerm;2038;51.728;6.674;2024-01-25T12:23:37;35.88;5.00;39.46;;
4048;Laerm;2038;51.728;6.674;2024-01-25T12:26:10;35.87;26.91;39.70;;
4048;Laerm;2038;51.728;6.674;2024-01-25T12:28:37;35.88;23.90;39.34;;
4048;Laerm;2038;51.728;6.674;2024-01-25T12:31:05;35.84;26.56;39.58;;
4048;Laerm;2038;51.728;6.674;2024-01-25T12:33:33;35.85;5.00;39.21;;
4048;Laerm;2038;51.728;6.674;2024-01-25T12:36:03;35.81;26.91;39.81;;
4048;Laerm;2038;51.728;6.674;2024-01-25T12:38:30;35.85;23.90;39.21;;
4048;Laerm;2038;51.728;6.674;2024-01-25T12:40:59;35.85;28.67;39.58;;
4048;Laerm;2038;51.728;6.674;2024-01-25T12:43:26;35.86;23.55;39.46;;
4048;Laerm;2038;51.728;6.674;2024-01-25T12:45:52;35.89;26.91;39.70;;
4048;Laerm;2038;51.728;6.674;2024-01-25T12:48:19;35.90;23.90;39.46;;
4048;Laerm;2038;51.728;6.674;2024-01-25T12:50:45;35.88;26.91;39.70;;
4048;Laerm;2038;51.728;6.674;2024-01-25T12:53:11;35.83;5.00;39.21;;
4048;Laerm;2038;51.728;6.674;2024-01-25T12:55:38;35.84;26.91;39.21;;
4048;Laerm;2038;51.728;6.674;2024-01-25T12:58:05;35.88;5.00;39.34;;
4048;Laerm;2038;51.728;6.674;2024-01-25T13:00:31;35.83;23.90;39.34;;
4048;Laerm;2038;51.728;6.674;2024-01-25T13:02:58;35.84;23.90;39.34;;
4048;Laerm;2038;51.728;6.674;2024-01-25T13:05:27;35.90;26.91;39.21;;
4048;Laerm;2038;51.728;6.674;2024-01-25T13:07:54;35.88;26.91;39.58;;
4048;Laerm;2038;51.728;6.674;2024-01-25T13:10:20;35.91;23.90;39.21;;
4048;Laerm;2038;51.728;6.674;2024-01-25T13:12:47;35.88;23.90;39.34;;
4048;Laerm;2038;51.728;6.674;2024-01-25T13:15:13;35.85;23.90;39.70;;
4048;Laerm;2038;51.728;6.674;2024-01-25T13:17:40;35.87;26.91;39.34;;
4048;Laerm;2038;51.728;6.674;2024-01-25T13:20:07;35.86;23.90;39.70;;
4048;Laerm;2038;51.728;6.674;2024-01-25T13:22:34;35.89;26.91;39.58;;
4048;Laerm;2038;51.728;6.674;2024-01-25T13:25:02;35.86;23.90;39.21;;
4048;Laerm;2038;51.728;6.674;2024-01-25T13:27:29;35.87;23.90;39.08;;
4048;Laerm;2038;51.728;6.674;2024-01-25T13:29:55;35.89;23.90;39.58;;
4048;Laerm;2038;51.728;6.674;2024-01-25T13:32:23;35.85;26.91;39.34;;
4048;Laerm;2038;51.728;6.674;2024-01-25T13:34:50;35.89;5.00;39.46;;
4048;Laerm;2038;51.728;6.674;2024-01-25T13:37:16;35.87;26.91;39.46;;
4048;Laerm;2038;51.728;6.674;2024-01-25T13:39:43;35.86;26.91;39.08;;
4048;Laerm;2038;51.728;6.674;2024-01-25T13:42:09;35.91;23.90;39.08;;
4048;Laerm;2038;51.728;6.674;2024-01-25T13:44:35;35.91;23.90;39.21;;
4048;Laerm;2038;51.728;6.674;2024-01-25T13:47:04;35.83;23.90;39.46;;
4048;Laerm;2038;51.728;6.674;2024-01-25T13:49:30;35.84;5.00;39.21;;
4048;Laerm;2038;51.728;6.674;2024-01-25T13:52:00;35.84;23.90;39.34;;
4048;Laerm;2038;51.728;6.674;2024-01-25T13:54:28;35.82;26.91;39.34;;
4048;Laerm;2038;51.728;6.674;2024-01-25T13:56:55;35.80;23.90;39.58;;
4048;Laerm;2038;51.728;6.674;2024-01-25T13:59:21;35.83;23.90;39.08;;
4048;Laerm;2038;51.728;6.674;2024-01-25T14:01:47;35.82;26.91;39.21;;
4048;Laerm;2038;51.728;6.674;2024-01-25T14:04:14;35.85;26.91;39.34;;
4048;Laerm;2038;51.728;6.674;2024-01-25T14:06:40;35.80;26.91;38.95;;